Stations météo

Publicité
Chatillon/Seine, France (7276): Température de l'air & dewpoint: 17.10.2018 02:00:00 - 23.10.2018 02:00:00 (CEST)Chatillon/Seine, France (7276): Vitesse du vent & gusts: 17.10.2018 02:00:00 - 23.10.2018 02:00:00 (CEST)Chatillon/Seine, France (7276): Direction du vent: 17.10.2018 02:00:00 - 23.10.2018 02:00:00 (CEST)Chatillon/Seine, France (7276): Ensoleillement: 17.10.2018 02:00:00 - 23.10.2018 02:00:00 (CEST)Chatillon/Seine, France (7276): Quantités de précipitations: 17.10.2018 02:00:00 - 23.10.2018 02:00:00 (CEST)
Date & Time tt [°C] td [°C] ff [km/h] ff [knt] fx [km/h] fx [knt] dd sd [min] rr [mm]
23.10.2018 02:00:00 7,0 6,6 4 2 9 5 N 0 -
23.10.2018 01:00:00 7,4 6,8 4 2 8 4 N 0 0,0
23.10.2018 00:00:00 8,1 6,9 2 1 9 5 NNW 0 0,0
22.10.2018 23:00:00 9,6 7,5 5 3 18 10 WNW 0 0,0
22.10.2018 22:00:00 10,7 8,1 11 6 22 12 N 0 0,0
22.10.2018 21:00:00 11,7 8,4 15 8 34 18 N 0 0,0
22.10.2018 20:00:00 12,8 8,7 16 9 35 19 N 0 -
22.10.2018 19:00:00 14,2 8,4 16 9 39 21 N 0 0,0
22.10.2018 18:00:00 16,2 6,3 26 14 41 22 N 60 0,0
22.10.2018 17:00:00 17,1 6,0 28 15 44 24 N 60 0,0
22.10.2018 16:00:00 17,1 5,1 22 12 42 23 N 60 0,0
22.10.2018 15:00:00 18,0 4,5 26 14 44 24 N 60 0,0
22.10.2018 14:00:00 17,6 2,7 31 17 42 23 N 60 -
22.10.2018 13:00:00 16,3 4,0 29 16 48 26 NNE 60 0,0
22.10.2018 12:00:00 14,1 4,9 11 6 26 14 N 60 0,0
22.10.2018 11:00:00 8,9 5,1 2 1 8 4 NNW 60 0,0
22.10.2018 10:00:00 6,3 6,3 0 0 8 4 N 60 0,0
22.10.2018 09:00:00 3,0 3,0 4 2 8 4 SE 24 0,0
22.10.2018 08:00:00 0,9 0,8 0 0 5 3 N 0 -
22.10.2018 07:00:00 0,8 0,4 0 0 4 2 N 0 0,0
22.10.2018 06:00:00 1,3 0,7 0 0 5 3 N 0 0,0
22.10.2018 05:00:00 1,4 0,7 4 2 4 2 ESE 0 0,0
22.10.2018 04:00:00 2,1 1,2 4 2 5 3 SSE 0 0,0
22.10.2018 03:00:00 3,1 1,8 0 0 4 2 N 0 0,0
22.10.2018 02:00:00 3,6 2,4 2 1 8 4 SSE 0 -
22.10.2018 01:00:00 4,5 2,0 0 0 4 2 N 0 0,0
22.10.2018 00:00:00 6,1 3,1 2 1 9 5 S 0 0,0
21.10.2018 23:00:00 7,9 3,4 0 0 8 4 N 0 0,0
21.10.2018 22:00:00 9,5 3,2 5 3 11 6 NNW 0 0,0
21.10.2018 21:00:00 9,9 3,0 5 3 9 5 N 0 0,0
21.10.2018 20:00:00 12,3 3,5 8 4 13 7 N 0 -
21.10.2018 19:00:00 14,9 4,6 8 4 22 12 NNW 0 0,0
21.10.2018 18:00:00 17,4 4,0 11 6 22 12 N 60 0,0
21.10.2018 17:00:00 18,8 5,3 9 5 21 11 N 60 0,0
21.10.2018 16:00:00 18,8 3,8 9 5 26 14 NNW 60 0,0
21.10.2018 15:00:00 18,0 4,9 15 8 24 13 NNE 60 0,0
21.10.2018 14:00:00 16,4 7,1 11 6 21 11 NNE 60 -
21.10.2018 13:00:00 13,4 9,3 4 2 11 6 N 60 0,0
21.10.2018 12:00:00 9,9 9,9 5 3 11 6 N 60 0,0
21.10.2018 11:00:00 6,7 6,7 4 2 9 5 NE 18 0,0
21.10.2018 10:00:00 4,9 4,9 2 1 5 3 NE 12 0,0
21.10.2018 09:00:00 3,3 3,3 0 0 4 2 N 0 0,0
21.10.2018 08:00:00 2,6 2,6 0 0 8 4 N 0 -
21.10.2018 07:00:00 2,3 2,3 0 0 2 1 N 0 0,0
21.10.2018 06:00:00 2,0 2,0 0 0 4 2 N 0 0,0
21.10.2018 05:00:00 2,7 2,7 2 1 4 2 S 0 0,0
21.10.2018 04:00:00 3,3 3,2 0 0 8 4 N 0 0,0
21.10.2018 03:00:00 4,2 3,9 0 0 4 2 N 0 0,0
21.10.2018 02:00:00 5,2 5,1 2 1 4 2 NNE 0 -
21.10.2018 01:00:00 6,3 6,0 0 0 8 4 N 0 0,0
21.10.2018 00:00:00 6,8 6,4 5 3 8 4 SSW 0 0,0
20.10.2018 23:00:00 7,7 6,8 2 1 5 3 ESE 0 0,0
20.10.2018 22:00:00 8,5 7,0 2 1 5 3 E 0 0,0
20.10.2018 21:00:00 11,2 8,4 0 0 11 6 N 0 0,0
20.10.2018 20:00:00 13,7 9,5 9 5 15 8 N 0 -
20.10.2018 19:00:00 15,4 10,0 8 4 18 10 NNW 24 0,0
20.10.2018 18:00:00 17,7 10,1 15 8 26 14 N 54 0,0
20.10.2018 17:00:00 18,6 9,9 15 8 22 12 NNE 60 0,0
20.10.2018 16:00:00 18,7 10,3 15 8 28 15 NNE 60 0,0
20.10.2018 15:00:00 18,3 10,9 15 8 28 15 NNE 60 0,0
20.10.2018 14:00:00 16,9 11,6 16 9 26 14 NNE 60 -
20.10.2018 13:00:00 14,1 12,0 8 4 13 7 NE 60 0,0
20.10.2018 12:00:00 9,8 9,8 5 3 11 6 NNW 30 0,0
20.10.2018 11:00:00 7,9 7,9 4 2 8 4 NE 0 0,0
20.10.2018 10:00:00 7,0 7,0 0 0 4 2 N 0 0,0
20.10.2018 09:00:00 5,7 5,7 2 1 9 5 NW 0 0,0
20.10.2018 08:00:00 4,1 4,1 0 0 8 4 N 0 -
20.10.2018 07:00:00 4,7 4,7 4 2 8 4 SSE 0 0,0
20.10.2018 06:00:00 4,8 4,8 4 2 5 3 SSE 0 0,0
20.10.2018 05:00:00 4,9 4,9 4 2 8 4 SSE 0 0,0
20.10.2018 04:00:00 5,4 5,4 0 0 5 3 N 0 0,0
20.10.2018 03:00:00 6,1 5,8 4 2 5 3 SSE 0 0,0
20.10.2018 02:00:00 6,5 6,1 0 0 8 4 N 0 -
20.10.2018 01:00:00 7,5 7,1 4 2 5 3 S 0 0,0
20.10.2018 00:00:00 9,3 8,2 2 1 5 3 E 0 0,0
19.10.2018 23:00:00 10,2 8,6 0 0 4 2 N 0 0,0
19.10.2018 22:00:00 11,2 8,9 0 0 5 3 N 0 0,0
19.10.2018 21:00:00 12,4 9,4 0 0 5 3 N 0 0,0
19.10.2018 20:00:00 14,1 8,9 0 0 13 7 N 0 -
19.10.2018 19:00:00 16,9 10,0 8 4 11 6 N 0 0,0
19.10.2018 18:00:00 19,8 10,5 5 3 18 10 NE 60 0,0
19.10.2018 17:00:00 20,4 9,6 9 5 24 13 NE 60 0,0
19.10.2018 16:00:00 20,4 9,0 13 7 26 14 NNE 60 0,0
19.10.2018 15:00:00 20,0 11,0 9 5 22 12 NNE 60 0,0
19.10.2018 14:00:00 18,7 11,5 11 6 18 10 NNE 60 -
19.10.2018 13:00:00 16,2 12,7 8 4 15 8 NE 48 0,0
19.10.2018 12:00:00 12,7 12,7 5 3 16 9 ENE 18 0,0
19.10.2018 11:00:00 10,4 10,4 11 6 16 9 NNE 0 0,0
19.10.2018 10:00:00 9,5 9,5 8 4 15 8 NE 0 0,0
19.10.2018 09:00:00 6,4 6,4 0 0 4 2 N 0 0,0
19.10.2018 08:00:00 6,6 6,6 2 1 4 2 ENE 0 -
19.10.2018 07:00:00 7,8 7,8 4 2 8 4 N 0 0,0
19.10.2018 06:00:00 9,6 9,6 5 3 11 6 ENE 0 0,0
19.10.2018 05:00:00 9,5 9,5 9 5 13 7 NE 0 0,0
19.10.2018 04:00:00 9,4 9,1 5 3 8 4 E 0 0,0
19.10.2018 03:00:00 10,0 9,4 4 2 8 4 NE 0 0,0
19.10.2018 02:00:00 10,9 9,7 2 1 9 5 N 0 -
19.10.2018 01:00:00 12,6 10,1 8 4 16 9 NE 0 0,0
19.10.2018 00:00:00 13,8 10,6 9 5 29 16 NE 0 0,0
18.10.2018 23:00:00 14,5 10,5 16 9 24 13 NNE 0 0,0
18.10.2018 22:00:00 15,1 10,1 13 7 18 10 NE 0 0,0
18.10.2018 21:00:00 15,9 9,8 11 6 21 11 NNE 0 0,0
18.10.2018 20:00:00 17,1 9,8 11 6 18 10 NNE 0 -
18.10.2018 19:00:00 19,0 9,5 8 4 28 15 N 0 0,0
18.10.2018 18:00:00 21,5 9,7 15 8 34 18 NE 60 0,0
18.10.2018 17:00:00 22,4 9,5 22 12 34 18 NNE 60 0,0
18.10.2018 16:00:00 23,0 9,4 22 12 41 22 NNE 60 0,0
18.10.2018 15:00:00 22,9 10,0 18 10 34 18 NNE 60 0,0
18.10.2018 14:00:00 21,9 11,0 15 8 28 15 NE 60 -
18.10.2018 13:00:00 19,7 10,7 15 8 28 15 NE 60 0,0
18.10.2018 12:00:00 16,8 11,3 9 5 16 9 NNE 60 0,0
18.10.2018 11:00:00 12,6 10,8 4 2 8 4 N 60 0,0
18.10.2018 10:00:00 8,1 8,1 4 2 5 3 WNW 60 0,0
18.10.2018 09:00:00 6,3 6,3 0 0 5 3 N 12 0,0
18.10.2018 08:00:00 4,5 4,5 0 0 4 2 N 0 -
18.10.2018 07:00:00 5,3 5,3 0 0 4 2 N 0 0,0
18.10.2018 06:00:00 6,0 6,0 0 0 4 2 N 0 0,0
18.10.2018 05:00:00 6,0 5,7 0 0 4 2 N 0 0,0
18.10.2018 04:00:00 7,1 6,8 4 2 5 3 SSW 0 0,0
18.10.2018 03:00:00 7,4 7,0 0 0 4 2 N 0 0,0
18.10.2018 02:00:00 8,0 7,2 2 1 4 2 SSE 0 -
18.10.2018 01:00:00 8,6 7,5 4 2 5 3 SE 0 0,0
18.10.2018 00:00:00 9,8 7,9 0 0 4 2 N 0 0,0
17.10.2018 23:00:00 11,1 8,7 0 0 4 2 N 0 0,0
17.10.2018 22:00:00 12,2 8,7 2 1 8 4 ESE 0 0,0
17.10.2018 21:00:00 13,3 8,6 2 1 8 4 E 0 0,0
17.10.2018 20:00:00 16,7 8,6 5 3 15 8 NNE 0 -
17.10.2018 19:00:00 18,6 9,4 8 4 21 11 N 6 0,0
17.10.2018 18:00:00 20,9 9,8 13 7 24 13 N 60 0,0
17.10.2018 17:00:00 22,7 8,8 11 6 22 12 N 60 0,0
17.10.2018 16:00:00 23,1 9,1 11 6 22 12 NNE 60 0,0
17.10.2018 15:00:00 22,2 10,7 4 2 16 9 N 60 0,0
17.10.2018 14:00:00 21,1 10,0 9 5 18 10 NNE 60 -
17.10.2018 13:00:00 18,3 11,4 2 1 8 4 N 60 0,0
17.10.2018 12:00:00 15,0 10,6 2 1 5 3 NNW 60 0,0
17.10.2018 11:00:00 10,9 9,3 4 2 8 4 W 48 0,0
17.10.2018 10:00:00 8,6 8,6 2 1 4 2 NNW 60 0,0
17.10.2018 09:00:00 7,0 7,0 2 1 5 3 SSE 30 0,0
17.10.2018 08:00:00 4,8 4,7 0 0 5 3 N 0 -
17.10.2018 07:00:00 5,4 5,3 2 1 8 4 S 0 0,0
17.10.2018 06:00:00 5,0 4,7 4 2 5 3 SE 0 0,0
17.10.2018 05:00:00 6,2 5,9 0 0 4 2 N 0 0,0
17.10.2018 04:00:00 6,8 6,4 0 0 8 4 N 0 0,0
17.10.2018 03:00:00 6,7 6,0 5 3 8 4 SSE 0 0,0
17.10.2018 02:00:00 7,7 6,6 4 2 9 5 SSE 0 -

tt = Température de l'air
td = dewpoint
ff = Vitesse du vent
fx = gusts
dd = Direction du vent
sd = Ensoleillement
rr = Quantités de précipitations

stations d'obs. à proximité